Time;durP1;ratioP1;P1;durP2;ratioP2;P2;SDS_P1;SDS_P2;PMS_P1;PMS_P2;Temp;Humidity;BMP_temperature;BMP_pressure;BME280_temperature;BME280_humidity;BME280_pressure;Samples;Min_cycle;Max_cycle;Signal;HPM_P1;HPM_P2
2024/02/18 00:00:08;;;;;;;0.50;0.50;;;;;;;7.14;100.00;98470.31;29395;216;63004;-53
2024/02/18 00:00:41;;;;;;;0.50;0.50;;;;;;;7.14;100.00;98479.22;29395;202;63009;-53
2024/02/18 00:01:16;;;;;;;0.55;0.55;;;;;;;7.14;100.00;98473.81;29395;218;63004;-53
2024/02/18 00:01:47;;;;;;;0.50;0.50;;;;;;;7.16;100.00;98476.28;29395;247;63009;-53
2024/02/18 00:02:22;;;;;;;0.50;0.50;;;;;;;7.16;100.00;98477.13;29395;230;63005;-53
2024/02/18 00:02:56;;;;;;;0.50;0.50;;;;;;;7.17;100.00;98476.06;29394;269;64014;-53
2024/02/18 00:03:29;;;;;;;0.50;0.50;;;;;;;7.17;100.00;98473.38;29395;236;63005;-53
2024/02/18 00:04:00;;;;;;;0.50;0.50;;;;;;;7.18;100.00;98475.00;29395;210;63009;-54
2024/02/18 00:04:31;;;;;;;0.50;0.50;;;;;;;7.17;100.00;98480.66;29395;247;63008;-53
2024/02/18 00:05:07;;;;;;;0.50;0.50;;;;;;;7.16;100.00;98476.28;29395;210;63009;-53
2024/02/18 00:05:39;;;;;;;0.50;0.50;;;;;;;7.15;100.00;98475.47;29395;225;63005;-52
2024/02/18 00:06:11;;;;;;;0.50;0.50;;;;;;;7.13;100.00;98474.88;29395;209;63016;-53
2024/02/18 00:06:43;;;;;;;0.50;0.50;;;;;;;7.12;100.00;98481.34;29395;228;63004;-54
2024/02/18 00:07:14;;;;;;;0.50;0.50;;;;;;;7.11;100.00;98471.59;29395;238;63009;-53
2024/02/18 00:07:47;;;;;;;0.50;0.50;;;;;;;7.10;100.00;98478.03;29395;220;63007;-53
2024/02/18 00:08:19;;;;;;;0.50;0.50;;;;;;;7.09;100.00;98471.00;29394;267;64013;-53
2024/02/18 00:08:50;;;;;;;0.50;0.50;;;;;;;7.10;100.00;98478.03;29395;266;63009;-53
2024/02/18 00:09:21;;;;;;;0.50;0.50;;;;;;;7.10;100.00;98475.34;29395;239;63009;-54
2024/02/18 00:09:53;;;;;;;0.50;0.50;;;;;;;7.12;100.00;98475.94;29395;215;63005;-54
2024/02/18 00:10:24;;;;;;;0.50;0.50;;;;;;;7.12;100.00;98472.41;29395;211;63009;-54
2024/02/18 00:10:55;;;;;;;0.50;0.50;;;;;;;7.11;100.00;98477.00;29395;220;63005;-54
2024/02/18 00:11:27;;;;;;;0.50;0.50;;;;;;;7.12;100.00;98470.53;29395;214;63009;-54
2024/02/18 00:11:58;;;;;;;0.50;0.50;;;;;;;7.11;100.00;98474.28;29395;213;63005;-53
2024/02/18 00:12:29;;;;;;;0.50;0.50;;;;;;;7.12;100.00;98473.25;29394;197;64009;-53
2024/02/18 00:13:00;;;;;;;0.50;0.50;;;;;;;7.11;100.00;98471.59;29395;245;63005;-53
2024/02/18 00:13:33;;;;;;;0.50;0.50;;;;;;;7.11;100.00;98468.87;29394;226;64013;-53
2024/02/18 00:14:05;;;;;;;0.50;0.50;;;;;;;7.11;100.00;98468.87;29395;216;63008;-53
2024/02/18 00:14:36;;;;;;;0.60;0.60;;;;;;;7.12;100.00;98469.72;29395;215;63020;-53
2024/02/18 00:15:09;;;;;;;0.60;0.60;;;;;;;7.12;100.00;98472.41;29395;275;63004;-54
2024/02/18 00:15:40;;;;;;;0.50;0.50;;;;;;;7.13;100.00;98466.78;29395;199;63009;-54
2024/02/18 00:16:12;;;;;;;0.50;0.50;;;;;;;7.15;100.00;98469.25;29395;220;63004;-54
2024/02/18 00:16:43;;;;;;;0.60;0.60;;;;;;;7.15;100.00;98463.84;29395;263;63008;-54
2024/02/18 00:17:14;;;;;;;0.60;0.60;;;;;;;7.16;100.00;98463.63;29395;217;63001;-54
2024/02/18 00:17:46;;;;;;;0.50;0.50;;;;;;;7.17;100.00;98467.97;29395;257;63009;-69
2024/02/18 00:18:18;;;;;;;0.60;0.60;;;;;;;7.18;100.00;98466.09;29395;217;63018;-54
2024/02/18 00:18:50;;;;;;;0.50;0.50;;;;;;;7.20;100.00;98464.81;29394;240;64013;-54
2024/02/18 00:19:21;;;;;;;0.55;0.55;;;;;;;7.21;100.00;98468.31;29395;200;63005;-54
2024/02/18 00:19:52;;;;;;;0.50;0.50;;;;;;;7.21;100.00;98468.31;29395;199;63009;-54
2024/02/18 00:20:25;;;;;;;0.50;0.50;;;;;;;7.18;100.00;98458.00;29394;214;64009;-54
2024/02/18 00:20:56;;;;;;;0.50;0.50;;;;;;;7.21;100.00;98469.16;29395;234;63009;-54
2024/02/18 00:21:29;;;;;;;0.60;0.60;;;;;;;7.21;100.00;98462.94;29395;249;63004;-55
2024/02/18 00:22:02;;;;;;;0.50;0.50;;;;;;;7.21;100.00;98471.03;29395;241;63009;-54
2024/02/18 00:22:34;;;;;;;0.60;0.60;;;;;;;7.20;100.00;98467.50;29395;199;63004;-54
2024/02/18 00:23:06;;;;;;;0.50;0.50;;;;;;;7.18;100.00;98469.63;29395;254;63009;-54
2024/02/18 00:23:37;;;;;;;0.50;0.50;;;;;;;7.17;100.00;98470.66;29395;253;63009;-54
2024/02/18 00:24:08;;;;;;;0.55;0.55;;;;;;;7.16;100.00;98471.72;29395;265;63008;-54
2024/02/18 00:24:39;;;;;;;0.60;0.60;;;;;;;7.14;100.00;98471.13;29395;198;63005;-54
2024/02/18 00:25:11;;;;;;;0.50;0.50;;;;;;;7.13;100.00;98469.47;29395;254;63009;-54
2024/02/18 00:25:44;;;;;;;0.60;0.60;;;;;;;7.14;100.00;98473.00;29394;279;64009;-53
2024/02/18 00:26:15;;;;;;;0.60;0.60;;;;;;;7.14;100.00;98473.81;29394;221;64013;-55
2024/02/18 00:26:50;;;;;;;0.50;0.50;;;;;;;7.14;100.00;98473.81;29395;225;63005;-54
2024/02/18 00:27:22;;;;;;;0.50;0.50;;;;;;;7.16;100.00;98470.91;29395;218;63009;-54
2024/02/18 00:27:54;;;;;;;0.50;0.50;;;;;;;7.16;100.00;98465.50;29395;274;63004;-54
2024/02/18 00:28:25;;;;;;;0.55;0.55;;;;;;;7.15;100.00;98467.38;29395;257;63009;-55
2024/02/18 00:28:57;;;;;;;0.60;0.60;;;;;;;7.15;100.00;98467.38;29395;202;63009;-54
2024/02/18 00:29:28;;;;;;;0.50;0.50;;;;;;;7.15;100.00;98472.78;29395;279;63009;-69
2024/02/18 00:30:00;;;;;;;0.50;0.50;;;;;;;7.17;100.00;98467.16;29395;199;63004;-53
2024/02/18 00:30:31;;;;;;;0.50;0.50;;;;;;;7.17;100.00;98467.16;29395;202;63008;-70
2024/02/18 00:31:03;;;;;;;0.50;0.50;;;;;;;7.18;100.00;98466.91;29395;202;63004;-54
2024/02/18 00:31:35;;;;;;;0.50;0.50;;;;;;;7.19;100.00;98470.44;29394;348;64013;-54
2024/02/18 00:32:07;;;;;;;0.50;0.50;;;;;;;7.19;100.00;98465.84;29394;209;64009;-54
2024/02/18 00:32:38;;;;;;;0.50;0.50;;;;;;;7.20;100.00;98464.81;29395;203;63009;-54
2024/02/18 00:33:09;;;;;;;0.50;0.50;;;;;;;7.22;100.00;98457.31;29394;202;64005;-54
2024/02/18 00:33:40;;;;;;;0.50;0.50;;;;;;;7.22;100.00;98462.69;29395;274;63009;-54
2024/02/18 00:34:19;;;;;;;0.50;0.50;;;;;;;7.24;100.00;98467.88;29395;244;63005;-54
2024/02/18 00:34:51;;;;;;;0.60;0.60;;;;;;;7.25;100.00;98466.81;29395;222;63009;-53
2024/02/18 00:35:22;;;;;;;0.50;0.50;;;;;;;7.24;100.00;98460.59;29395;202;63017;-54
2024/02/18 00:35:53;;;;;;;0.60;0.60;;;;;;;7.26;100.00;98466.59;29395;198;63009;-68
2024/02/18 00:36:24;;;;;;;0.60;0.60;;;;;;;7.27;100.00;98457.44;29395;205;63004;-53
2024/02/18 00:36:56;;;;;;;0.60;0.60;;;;;;;7.29;100.00;98468.78;29395;210;63009;-53
2024/02/18 00:37:27;;;;;;;0.55;0.55;;;;;;;7.29;100.00;98465.25;29394;202;64009;-53
2024/02/18 00:37:58;;;;;;;0.50;0.50;;;;;;;7.28;100.00;98459.03;29395;244;63008;-53
2024/02/18 00:38:30;;;;;;;0.50;0.50;;;;;;;7.29;100.00;98459.84;29395;218;63004;-53
2024/02/18 00:39:01;;;;;;;0.50;0.50;;;;;;;7.28;100.00;98467.13;29395;215;63009;-53
2024/02/18 00:39:32;;;;;;;0.50;0.50;;;;;;;7.27;100.00;98462.00;29395;259;63005;-53
2024/02/18 00:40:04;;;;;;;0.50;0.50;;;;;;;7.26;100.00;98458.47;29395;230;63009;-52
2024/02/18 00:40:35;;;;;;;0.50;0.50;;;;;;;7.26;100.00;98466.59;29395;210;63005;-53
2024/02/18 00:41:07;;;;;;;0.50;0.50;;;;;;;7.27;100.00;98462.81;29395;223;63009;-53
2024/02/18 00:41:38;;;;;;;0.50;0.50;;;;;;;7.27;100.00;98457.44;29395;210;63005;-54
2024/02/18 00:42:10;;;;;;;0.50;0.50;;;;;;;7.28;100.00;98464.44;29395;222;63009;-54
2024/02/18 00:42:41;;;;;;;0.50;0.50;;;;;;;7.29;100.00;98460.69;29394;212;64009;-53
2024/02/18 00:43:13;;;;;;;0.60;0.60;;;;;;;7.27;100.00;98462.81;29395;209;63009;-53
2024/02/18 00:43:44;;;;;;;0.50;0.50;;;;;;;7.28;100.00;98461.75;29395;220;63004;-54
2024/02/18 00:44:15;;;;;;;0.60;0.60;;;;;;;7.28;100.00;98461.75;29395;220;63009;-54
2024/02/18 00:44:46;;;;;;;0.50;0.50;;;;;;;7.29;100.00;98463.38;29395;291;63004;-54
2024/02/18 00:45:18;;;;;;;0.50;0.50;;;;;;;7.29;100.00;98455.28;29395;214;63009;-54
2024/02/18 00:45:49;;;;;;;0.50;0.50;;;;;;;7.29;100.00;98460.69;29395;220;63004;-53
2024/02/18 00:46:20;;;;;;;0.50;0.50;;;;;;;7.30;100.00;98459.63;29394;321;64014;-54
2024/02/18 00:46:52;;;;;;;0.50;0.50;;;;;;;7.31;100.00;98463.16;29395;222;63005;-53
2024/02/18 00:47:23;;;;;;;0.50;0.50;;;;;;;7.31;100.00;98463.97;29395;233;63025;-54
2024/02/18 00:47:55;;;;;;;0.50;0.50;;;;;;;7.31;100.00;98453.19;29395;206;63005;-53
2024/02/18 00:48:26;;;;;;;0.50;0.50;;;;;;;7.32;100.00;98460.22;29395;209;63009;-53
2024/02/18 00:48:57;;;;;;;0.52;0.52;;;;;;;7.33;100.00;98461.87;29395;209;63010;-53
2024/02/18 00:49:29;;;;;;;0.50;0.50;;;;;;;7.33;100.00;98456.47;29395;266;63009;-54
2024/02/18 00:50:00;;;;;;;0.50;0.50;;;;;;;7.33;100.00;98456.47;29395;219;63005;-53
2024/02/18 00:50:33;;;;;;;0.60;0.60;;;;;;;7.33;100.00;98459.16;29395;202;63009;-53
2024/02/18 00:51:07;;;;;;;0.50;0.50;;;;;;;7.33;100.00;98455.66;29395;213;63004;-53
2024/02/18 00:51:39;;;;;;;0.50;0.50;;;;;;;7.31;100.00;98457.75;29394;258;64013;-54
2024/02/18 00:52:10;;;;;;;0.50;0.50;;;;;;;7.31;100.00;98458.56;29395;206;63004;-53
2024/02/18 00:52:41;;;;;;;0.50;0.50;;;;;;;7.30;100.00;98459.63;29395;202;63009;-53
2024/02/18 00:53:13;;;;;;;0.50;0.50;;;;;;;7.28;100.00;98459.03;29395;218;63004;-53
2024/02/18 00:53:45;;;;;;;0.50;0.50;;;;;;;7.26;100.00;98455.78;29395;214;63008;-54
2024/02/18 00:54:16;;;;;;;0.50;0.50;;;;;;;7.22;100.00;98459.19;29395;205;63005;-53
2024/02/18 00:54:47;;;;;;;0.60;0.60;;;;;;;7.19;100.00;98460.47;29395;223;63005;-53
2024/02/18 00:55:19;;;;;;;0.50;0.50;;;;;;;7.18;100.00;98461.50;29395;219;63005;-54
2024/02/18 00:55:50;;;;;;;0.50;0.50;;;;;;;7.19;100.00;98462.34;29395;204;63009;-53
2024/02/18 00:56:21;;;;;;;0.50;0.50;;;;;;;7.21;100.00;98462.94;29395;228;63005;-53
2024/02/18 00:56:52;;;;;;;0.50;0.50;;;;;;;7.20;100.00;98455.88;29394;231;64013;-54
2024/02/18 00:57:24;;;;;;;0.57;0.57;;;;;;;7.20;100.00;98464.81;29395;203;63014;-53
2024/02/18 00:57:56;;;;;;;0.50;0.50;;;;;;;7.18;100.00;98458.00;29394;213;64013;-53
2024/02/18 00:58:28;;;;;;;0.50;0.50;;;;;;;7.16;100.00;98460.94;29395;245;63004;-54
2024/02/18 00:58:59;;;;;;;0.50;0.50;;;;;;;7.16;100.00;98465.50;29394;204;64013;-53
2024/02/18 00:59:30;;;;;;;0.50;0.50;;;;;;;7.16;100.00;98463.63;29395;214;63004;-54
2024/02/18 01:00:03;;;;;;;0.60;0.60;;;;;;;7.17;100.00;98461.75;29395;270;63009;-56
2024/02/18 01:00:34;;;;;;;0.50;0.50;;;;;;;7.17;100.00;98459.03;29395;198;63004;-54
2024/02/18 01:01:05;;;;;;;0.60;0.60;;;;;;;7.16;100.00;98460.94;29394;234;64013;-55
2024/02/18 01:01:36;;;;;;;0.50;0.50;;;;;;;7.16;100.00;98455.53;29395;240;63005;-53
2024/02/18 01:02:08;;;;;;;0.60;0.60;;;;;;;7.17;100.00;98461.75;29395;209;63015;-54
2024/02/18 01:02:43;;;;;;;0.50;0.50;;;;;;;7.17;100.00;98457.16;29395;198;63005;-54
2024/02/18 01:03:14;;;;;;;0.60;0.60;;;;;;;7.17;100.00;98457.16;29395;384;63009;-53
2024/02/18 01:03:46;;;;;;;0.55;0.55;;;;;;;7.17;100.00;98454.47;29395;268;63005;-54
2024/02/18 01:04:17;;;;;;;0.60;0.60;;;;;;;7.18;100.00;98453.41;29395;279;63009;-53
2024/02/18 01:04:49;;;;;;;0.50;0.50;;;;;;;7.20;100.00;98445.09;29395;231;63005;-53
2024/02/18 01:05:21;;;;;;;0.55;0.55;;;;;;;7.20;100.00;98456.72;29395;224;63009;-53
2024/02/18 01:05:52;;;;;;;0.50;0.50;;;;;;;7.18;100.00;98458.81;29395;210;63004;-53
2024/02/18 01:06:23;;;;;;;0.50;0.50;;;;;;;7.13;100.00;98445.19;29394;226;64013;-53
2024/02/18 01:06:55;;;;;;;0.50;0.50;;;;;;;7.12;100.00;98448.94;29395;251;63004;-53
2024/02/18 01:07:26;;;;;;;0.50;0.50;;;;;;;7.11;100.00;98458.09;29395;272;63004;-54
2024/02/18 01:07:57;;;;;;;0.50;0.50;;;;;;;7.10;100.00;98453.75;29395;244;63004;-53
2024/02/18 01:08:29;;;;;;;0.50;0.50;;;;;;;7.09;100.00;98454.81;29395;212;63008;-53
2024/02/18 01:09:00;;;;;;;0.50;0.50;;;;;;;7.08;100.00;98447.75;29395;219;63005;-53
2024/02/18 01:09:32;;;;;;;0.50;0.50;;;;;;;7.07;100.00;98456.91;29395;227;63009;-54
2024/02/18 01:10:04;;;;;;;0.50;0.50;;;;;;;7.06;100.00;98457.97;29395;197;63005;-54
2024/02/18 01:10:38;;;;;;;0.60;0.60;;;;;;;7.06;100.00;98455.25;29395;204;63009;-54
2024/02/18 01:11:11;;;;;;;0.60;0.60;;;;;;;7.06;100.00;98455.25;29394;220;64005;-53
2024/02/18 01:11:43;;;;;;;0.60;0.60;;;;;;;7.06;100.00;98458.78;29394;211;64013;-53
2024/02/18 01:12:14;;;;;;;0.80;0.80;;;;;;;7.06;100.00;98449.88;29395;221;63004;-67
2024/02/18 01:12:47;;;;;;;0.60;0.60;;;;;;;7.07;100.00;98454.22;29395;225;63009;-70
2024/02/18 01:13:18;;;;;;;0.50;0.50;;;;;;;7.06;100.00;98463.38;29395;207;63004;-53
2024/02/18 01:13:50;;;;;;;0.50;0.50;;;;;;;7.06;100.00;98460.66;29395;214;63009;-53
2024/02/18 01:14:21;;;;;;;0.50;0.50;;;;;;;7.04;100.00;98451.97;29394;262;64009;-53
2024/02/18 01:14:52;;;;;;;0.60;0.60;;;;;;;7.04;100.00;98463.59;29395;221;63008;-53
2024/02/18 01:15:23;;;;;;;0.50;0.50;;;;;;;7.04;100.00;98454.66;29395;278;63004;-53
2024/02/18 01:15:55;;;;;;;0.50;0.50;;;;;;;7.03;100.00;98451.16;29394;226;64013;-53
2024/02/18 01:16:29;;;;;;;0.60;0.60;;;;;;;7.04;100.00;98452.78;29395;218;63008;-53
2024/02/18 01:17:02;;;;;;;0.50;0.50;;;;;;;7.05;100.00;98456.31;29395;238;63028;-53
2024/02/18 01:17:33;;;;;;;0.50;0.50;;;;;;;7.05;100.00;98453.63;29395;199;63005;-53
2024/02/18 01:18:05;;;;;;;0.50;0.50;;;;;;;7.04;100.00;98458.19;29395;250;63009;-54
2024/02/18 01:18:43;;;;;;;0.60;0.60;;;;;;;7.03;100.00;98451.16;29395;218;63005;-53
2024/02/18 01:19:15;;;;;;;0.60;0.60;;;;;;;7.01;100.00;98453.25;29395;197;63016;-53
2024/02/18 01:19:46;;;;;;;0.50;0.50;;;;;;;7.01;100.00;98452.44;29395;261;63005;-53
2024/02/18 01:20:18;;;;;;;0.50;0.50;;;;;;;7.00;100.00;98456.19;29395;227;63009;-54
2024/02/18 01:20:49;;;;;;;0.50;0.50;;;;;;;6.99;100.00;98449.97;29395;202;63004;-53
2024/02/18 01:21:20;;;;;;;0.50;0.50;;;;;;;6.98;100.00;98447.50;29394;254;64013;-53
2024/02/18 01:21:52;;;;;;;0.60;0.60;;;;;;;6.98;100.00;98447.50;29395;246;63015;-53
2024/02/18 01:22:24;;;;;;;0.60;0.60;;;;;;;6.99;100.00;98449.16;29395;299;63008;-54
2024/02/18 01:22:55;;;;;;;0.50;0.50;;;;;;;7.01;100.00;98453.25;29394;203;63998;-53
2024/02/18 01:23:26;;;;;;;0.50;0.50;;;;;;;7.02;100.00;98451.38;29395;222;63009;-53
2024/02/18 01:23:57;;;;;;;0.50;0.50;;;;;;;7.03;100.00;98453.03;29395;222;63005;-54
2024/02/18 01:24:28;;;;;;;0.50;0.50;;;;;;;7.05;100.00;98448.22;29395;271;63009;-56
2024/02/18 01:25:00;;;;;;;0.60;0.60;;;;;;;7.06;100.00;98449.88;29395;229;63005;-54
2024/02/18 01:25:31;;;;;;;0.50;0.50;;;;;;;7.08;100.00;98447.75;29395;212;63009;-53
2024/02/18 01:26:03;;;;;;;0.50;0.50;;;;;;;7.09;100.00;98452.09;29395;267;63017;-53
2024/02/18 01:26:34;;;;;;;0.50;0.50;;;;;;;7.09;100.00;98443.19;29395;253;63009;-53
2024/02/18 01:27:06;;;;;;;0.50;0.50;;;;;;;7.10;100.00;98444.84;29394;270;64005;-53
2024/02/18 01:27:37;;;;;;;0.50;0.50;;;;;;;7.09;100.00;98438.59;29395;271;63009;-53
2024/02/18 01:28:08;;;;;;;0.60;0.60;;;;;;;7.09;100.00;98444.00;29394;251;64009;-53
2024/02/18 01:28:41;;;;;;;0.50;0.50;;;;;;;7.08;100.00;98445.06;29395;269;63009;-53
2024/02/18 01:29:13;;;;;;;0.60;0.60;;;;;;;7.08;100.00;98447.75;29395;260;63004;-53
2024/02/18 01:29:44;;;;;;;0.52;0.52;;;;;;;7.07;100.00;98446.13;29395;215;63009;-53
2024/02/18 01:30:19;;;;;;;0.50;0.50;;;;;;;7.06;100.00;98439.06;29395;238;63004;-68
2024/02/18 01:30:51;;;;;;;0.50;0.50;;;;;;;7.05;100.00;98450.91;29395;197;63027;-54
2024/02/18 01:31:23;;;;;;;0.50;0.50;;;;;;;7.03;100.00;98440.34;29395;233;63005;-54
2024/02/18 01:31:54;;;;;;;0.50;0.50;;;;;;;7.01;100.00;98441.62;29395;248;63009;-54
2024/02/18 01:32:25;;;;;;;0.50;0.50;;;;;;;7.00;100.00;98448.91;29395;220;63017;-54
2024/02/18 01:32:57;;;;;;;0.50;0.50;;;;;;;6.99;100.00;98439.16;29395;219;63009;-54
2024/02/18 01:33:32;;;;;;;0.60;0.60;;;;;;;6.97;100.00;98441.28;29394;236;64009;-54
2024/02/18 01:34:03;;;;;;;0.50;0.50;;;;;;;6.97;100.00;98441.28;29395;199;63015;-54
2024/02/18 01:34:34;;;;;;;0.60;0.60;;;;;;;6.98;100.00;98439.41;29395;236;63007;-54
2024/02/18 01:35:07;;;;;;;0.50;0.50;;;;;;;7.00;100.00;98442.69;29395;232;63009;-54
2024/02/18 01:35:38;;;;;;;0.50;0.50;;;;;;;7.01;100.00;98441.62;29395;275;63004;-54
2024/02/18 01:36:09;;;;;;;0.50;0.50;;;;;;;7.01;100.00;98436.25;29395;401;63009;-54
2024/02/18 01:36:42;;;;;;;0.50;0.50;;;;;;;7.02;100.00;98437.87;29395;214;63004;-54
2024/02/18 01:37:13;;;;;;;0.60;0.60;;;;;;;7.03;100.00;98431.44;29395;198;63009;-54
2024/02/18 01:37:45;;;;;;;0.50;0.50;;;;;;;7.04;100.00;98433.09;29395;204;63004;-54
2024/02/18 01:38:17;;;;;;;0.50;0.50;;;;;;;7.05;100.00;98437.44;29395;227;63009;-54
2024/02/18 01:38:48;;;;;;;0.60;0.60;;;;;;;7.06;100.00;98433.66;29394;214;64009;-54
2024/02/18 01:39:19;;;;;;;0.50;0.50;;;;;;;7.07;100.00;98435.31;29395;257;63009;-54
2024/02/18 01:39:51;;;;;;;0.50;0.50;;;;;;;7.06;100.00;98433.66;29395;217;63005;-54
2024/02/18 01:40:22;;;;;;;0.50;0.50;;;;;;;7.07;100.00;98435.31;29395;203;63009;-54
2024/02/18 01:40:53;;;;;;;0.50;0.50;;;;;;;7.07;100.00;98435.31;29395;260;63005;-54
2024/02/18 01:41:24;;;;;;;0.50;0.50;;;;;;;7.06;100.00;98439.06;29395;208;63009;-54
2024/02/18 01:41:55;;;;;;;0.50;0.50;;;;;;;7.05;100.00;98438.25;29395;220;63005;-54
2024/02/18 01:42:27;;;;;;;0.50;0.50;;;;;;;7.04;100.00;98435.78;29395;197;63009;-54
2024/02/18 01:42:58;;;;;;;0.60;0.60;;;;;;;7.04;100.00;98438.47;29394;239;64009;-54
2024/02/18 01:43:30;;;;;;;0.60;0.60;;;;;;;7.03;100.00;98442.22;29394;230;64013;-54
2024/02/18 01:44:01;;;;;;;0.50;0.50;;;;;;;7.02;100.00;98437.87;29395;242;63004;-55
2024/02/18 01:44:35;;;;;;;0.50;0.50;;;;;;;7.01;100.00;98438.94;29395;207;63009;-54
2024/02/18 01:45:11;;;;;;;0.50;0.50;;;;;;;7.01;100.00;98433.53;29395;255;63018;-54
2024/02/18 01:45:42;;;;;;;0.52;0.52;;;;;;;7.03;100.00;98434.12;29395;202;63008;-54
2024/02/18 01:46:14;;;;;;;0.50;0.50;;;;;;;7.03;100.00;98432.25;29395;216;63005;-54
2024/02/18 01:46:46;;;;;;;0.50;0.50;;;;;;;7.05;100.00;98432.03;29395;278;63009;-56
2024/02/18 01:47:17;;;;;;;0.60;0.60;;;;;;;7.05;100.00;98432.84;29395;230;63005;-54
2024/02/18 01:47:49;;;;;;;0.50;0.50;;;;;;;7.05;100.00;98437.44;29395;212;63012;-54
2024/02/18 01:48:22;;;;;;;0.50;0.50;;;;;;;7.04;100.00;98427.69;29395;208;63005;-54
2024/02/18 01:48:54;;;;;;;0.50;0.50;;;;;;;7.04;100.00;98427.69;29394;206;64013;-54
2024/02/18 01:49:27;;;;;;;0.52;0.52;;;;;;;7.02;100.00;98435.19;29395;265;63005;-54
2024/02/18 01:49:59;;;;;;;0.50;0.50;;;;;;;7.01;100.00;98436.25;29395;233;63024;-54
2024/02/18 01:50:33;;;;;;;0.57;0.57;;;;;;;6.99;100.00;98430.25;29395;214;63004;-54
2024/02/18 01:51:05;;;;;;;0.50;0.50;;;;;;;6.99;100.00;98432.94;29395;203;63009;-54
2024/02/18 01:51:38;;;;;;;0.50;0.50;;;;;;;6.97;100.00;98438.56;29395;209;63004;-54
2024/02/18 01:52:11;;;;;;;0.50;0.50;;;;;;;6.96;100.00;98438.81;29395;219;63009;-54
2024/02/18 01:52:46;;;;;;;0.50;0.50;;;;;;;6.94;100.00;98435.53;29395;220;63004;-54
2024/02/18 01:53:19;;;;;;;0.50;0.50;;;;;;;6.91;100.00;98441.41;29394;210;64013;-54
2024/02/18 01:53:52;;;;;;;0.60;0.60;;;;;;;6.89;100.00;98443.50;29395;247;63005;-54
2024/02/18 01:54:33;;;;;;;0.60;0.60;;;;;;;6.88;100.00;98436.47;29395;219;63009;-54
2024/02/18 01:55:06;;;;;;;0.60;0.60;;;;;;;6.87;100.00;98429.44;29416;227;64009;-54
2024/02/18 01:55:39;;;;;;;0.50;0.50;;;;;;;6.89;100.00;98444.34;29395;199;63009;-54
2024/02/18 01:56:15;;;;;;;0.50;0.50;;;;;;;6.89;100.00;98433.53;29395;199;63018;-54
2024/02/18 01:56:46;;;;;;;0.50;0.50;;;;;;;6.91;100.00;98436.84;29395;204;63009;-54
2024/02/18 01:57:18;;;;;;;0.50;0.50;;;;;;;6.91;100.00;98436.00;29395;241;63005;-54
2024/02/18 01:57:50;;;;;;;0.50;0.50;;;;;;;6.90;100.00;98434.38;29395;241;63009;-54
2024/02/18 01:58:22;;;;;;;0.60;0.60;;;;;;;6.90;100.00;98443.28;29394;198;64009;-54
2024/02/18 01:58:54;;;;;;;0.50;0.50;;;;;;;6.88;100.00;98437.28;29395;231;63022;-54
2024/02/18 01:59:25;;;;;;;0.50;0.50;;;;;;;6.87;100.00;98441.03;29395;205;63004;-54
2024/02/18 02:01:03;;;;;;;0.54;0.54;;;;;;;6.84;100.00;98437.97;88181;204;64004;-91
2024/02/18 02:01:35;;;;;;;0.80;0.80;;;;;;;6.84;100.00;98443.38;29394;219;64009;-91
2024/02/18 02:02:07;;;;;;;0.50;0.50;;;;;;;6.82;100.00;98449.00;29395;228;63005;-90
2024/02/18 02:02:49;;;;;;;0.50;0.50;;;;;;;6.81;100.00;98446.53;29395;271;63009;-90
2024/02/18 02:03:21;;;;;;;0.70;0.70;;;;;;;6.81;100.00;98443.84;29395;241;63011;-92
2024/02/18 02:03:56;;;;;;;0.50;0.50;;;;;;;6.77;100.00;98440.78;29394;202;64013;-92
2024/02/18 02:04:28;;;;;;;0.50;0.50;;;;;;;6.78;100.00;98441.59;29394;261;64001;-90
2024/02/18 02:05:00;;;;;;;0.50;0.50;;;;;;;6.81;100.00;98441.13;29395;279;63009;-90
2024/02/18 02:05:32;;;;;;;0.60;0.60;;;;;;;6.79;100.00;98443.25;29395;213;63004;-91
2024/02/18 02:06:06;;;;;;;0.70;0.70;;;;;;;6.77;100.00;98445.34;29394;206;64013;-90
2024/02/18 02:06:38;;;;;;;0.50;0.50;;;;;;;6.78;100.00;98447.00;29395;207;63004;-91
2024/02/18 02:07:09;;;;;;;0.50;0.50;;;;;;;6.79;100.00;98443.25;29395;243;63008;-90
2024/02/18 02:07:43;;;;;;;0.50;0.50;;;;;;;6.78;100.00;98442.41;29395;275;63004;-91
2024/02/18 02:08:15;;;;;;;0.60;0.60;;;;;;;6.79;100.00;98443.25;29395;236;63009;-90
2024/02/18 02:08:47;;;;;;;0.55;0.55;;;;;;;6.79;100.00;98445.94;29394;230;64005;-92
2024/02/18 02:09:20;;;;;;;0.60;0.60;;;;;;;6.77;100.00;98443.47;29394;226;64014;-91
2024/02/18 02:09:52;;;;;;;0.50;0.50;;;;;;;6.76;100.00;98446.41;29395;245;63005;-90
2024/02/18 02:10:23;;;;;;;0.60;0.60;;;;;;;6.74;100.00;98443.94;29395;197;63009;-89
2024/02/18 02:10:55;;;;;;;0.60;0.60;;;;;;;6.71;100.00;98442.50;29395;315;63005;-91
2024/02/18 02:11:26;;;;;;;0.60;0.60;;;;;;;6.69;100.00;98447.31;29395;246;63009;-90
2024/02/18 02:11:58;;;;;;;0.50;0.50;;;;;;;6.68;100.00;98445.66;29395;199;63005;-90
2024/02/18 02:12:32;;;;;;;0.60;0.60;;;;;;;6.68;100.00;98442.16;29395;203;63009;-91
2024/02/18 02:13:06;;;;;;;0.50;0.50;;;;;;;6.65;100.00;98438.03;29395;198;63004;-90
2024/02/18 02:13:38;;;;;;;0.60;0.60;;;;;;;6.62;100.00;98441.19;29395;210;63009;-91
2024/02/18 02:14:12;;;;;;;0.50;0.50;;;;;;;6.59;100.00;98443.53;29395;243;63004;-90
2024/02/18 02:14:44;;;;;;;0.50;0.50;;;;;;;6.57;100.00;98445.66;29394;277;64002;-90
2024/02/18 02:15:15;;;;;;;1.08;1.08;;;;;;;6.57;100.00;98438.37;29395;258;63004;-89
2024/02/18 02:15:47;;;;;;;0.60;0.60;;;;;;;6.59;100.00;98443.53;29395;324;63009;-89
2024/02/18 02:16:18;;;;;;;0.70;0.70;;;;;;;6.60;100.00;98440.59;29395;214;63005;-91
2024/02/18 02:16:50;;;;;;;0.50;0.50;;;;;;;6.63;100.00;98423.94;29395;218;63017;-90
2024/02/18 02:17:21;;;;;;;0.50;0.50;;;;;;;6.65;100.00;98438.03;29395;272;63005;-93
2024/02/18 02:17:53;;;;;;;0.50;0.50;;;;;;;6.60;100.00;98424.41;29395;209;63009;-90
2024/02/18 02:18:24;;;;;;;0.50;0.50;;;;;;;6.68;100.00;98432.19;29395;224;63005;-92
2024/02/18 02:18:57;;;;;;;0.50;0.50;;;;;;;6.69;100.00;98433.81;29395;246;63009;-92
2024/02/18 02:19:28;;;;;;;0.50;0.50;;;;;;;6.71;100.00;98431.72;29395;197;63005;-91
2024/02/18 02:20:00;;;;;;;0.60;0.60;;;;;;;6.73;100.00;98435.00;29394;243;64013;-90
2024/02/18 02:20:31;;;;;;;0.50;0.50;;;;;;;6.74;100.00;98435.84;29395;252;63004;-91
2024/02/18 02:21:04;;;;;;;0.60;0.60;;;;;;;6.78;100.00;98425.41;29395;261;63009;-92
2024/02/18 02:21:36;;;;;;;0.50;0.50;;;;;;;6.78;100.00;98431.63;29395;212;63004;-91
2024/02/18 02:23:06;;;;;;;0.50;0.50;;;;;;;6.68;100.00;98416.00;29395;220;63009;-90
2024/02/18 02:24:22;;;;;;;;;;;;;;;;;;;;;
2024/02/18 02:25:05;;;;;;;0.50;0.50;;;;;;;6.69;100.00;98409.56;29395;238;63009;-90
2024/02/18 02:26:25;;;;;;;;;;;;;;;;;;;;;
2024/02/18 02:27:07;;;;;;;0.50;0.50;;;;;;;6.80;100.00;98412.50;29394;255;64013;-90
2024/02/18 02:27:42;;;;;;;0.57;0.57;;;;;;;6.80;100.00;98415.22;29395;218;63004;-92
2024/02/18 02:28:22;;;;;;;0.60;0.60;;;;;;;6.80;100.00;98423.31;29395;206;63009;-92
2024/02/18 02:29:28;;;;;;;0.60;0.60;;;;;;;6.69;100.00;98409.56;29394;207;64004;-91
2024/02/18 02:30:01;;;;;;;0.60;0.60;;;;;;;6.80;100.00;98417.91;29395;303;63008;-92
2024/02/18 02:30:33;;;;;;;0.60;0.60;;;;;;;6.81;100.00;98416.84;29395;335;63004;-89
2024/02/18 02:31:04;;;;;;;0.60;0.60;;;;;;;6.81;100.00;98414.16;29395;221;63009;-89
2024/02/18 02:31:36;;;;;;;0.55;0.55;;;;;;;6.81;100.00;98414.16;29395;241;63009;-90
2024/02/18 02:32:08;;;;;;;0.60;0.60;;;;;;;6.81;100.00;98406.88;29395;305;63009;-93
2024/02/18 02:32:39;;;;;;;0.60;0.60;;;;;;;6.82;100.00;98415.81;29395;225;63005;-90
2024/02/18 02:33:11;;;;;;;0.60;0.60;;;;;;;6.83;100.00;98412.06;29395;283;63009;-91
2024/02/18 02:33:46;;;;;;;0.50;0.50;;;;;;;6.83;100.00;98412.06;29395;227;63007;-91
2024/02/18 02:34:17;;;;;;;0.52;0.52;;;;;;;6.82;100.00;98413.09;29395;202;63009;-91
2024/02/18 02:34:49;;;;;;;0.60;0.60;;;;;;;6.83;100.00;98406.66;29395;212;63009;-91
2024/02/18 02:35:20;;;;;;;0.60;0.60;;;;;;;6.83;100.00;98403.97;29395;307;63009;-91
2024/02/18 02:35:52;;;;;;;0.50;0.50;;;;;;;6.82;100.00;98408.53;29395;254;63004;-91
2024/02/18 02:36:23;;;;;;;0.60;0.60;;;;;;;6.82;100.00;98405.00;29395;299;63009;-91
2024/02/18 02:36:54;;;;;;;0.60;0.60;;;;;;;6.82;100.00;98415.81;29394;232;64009;-89
2024/02/18 02:37:26;;;;;;;0.50;0.50;;;;;;;6.82;100.00;98415.81;29395;239;63008;-91